createdAt,value
2022-08-23T00:01:24.373Z,2.10
2022-08-23T00:03:55.584Z,1.70
2022-08-23T00:06:24.248Z,1.70
2022-08-23T00:08:53.889Z,1.80
2022-08-23T00:11:31.097Z,1.73
2022-08-23T00:14:00.874Z,1.93
2022-08-23T00:16:29.781Z,2.43
2022-08-23T00:18:59.432Z,2.03
2022-08-23T00:21:29.316Z,1.60
2022-08-23T00:23:57.811Z,1.70
2022-08-23T00:26:26.065Z,2.00
2022-08-23T00:28:54.207Z,2.00
2022-08-23T00:31:22.409Z,2.13
2022-08-23T00:33:50.491Z,1.60
2022-08-23T00:36:20.063Z,1.50
2022-08-23T00:38:48.159Z,1.93
2022-08-23T00:41:16.339Z,1.63
2022-08-23T00:44:01.861Z,2.00
2022-08-23T00:47:02.487Z,1.93
2022-08-23T00:49:32.350Z,1.60
2022-08-23T00:52:08.880Z,2.17
2022-08-23T00:54:41.256Z,2.00
2022-08-23T00:57:12.883Z,1.80
2022-08-23T00:59:41.347Z,1.60
2022-08-23T01:02:10.734Z,1.80
2022-08-23T01:04:42.768Z,1.93
2022-08-23T01:07:18.603Z,1.80
2022-08-23T01:09:48.767Z,1.97
2022-08-23T01:12:32.556Z,1.87
2022-08-23T01:15:06.025Z,2.20
2022-08-23T01:17:39.646Z,2.10
2022-08-23T01:20:11.949Z,1.97
2022-08-23T01:22:47.663Z,1.40
2022-08-23T01:25:21.506Z,2.00
2022-08-23T01:27:51.135Z,2.03
2022-08-23T01:30:22.970Z,1.87
2022-08-23T01:32:54.332Z,2.30
2022-08-23T01:35:31.086Z,1.70
2022-08-23T01:37:59.535Z,2.10
2022-08-23T01:40:29.648Z,1.60
2022-08-23T01:42:57.855Z,1.53
2022-08-23T01:45:26.313Z,1.73
2022-08-23T01:47:54.565Z,2.10
2022-08-23T01:50:23.067Z,1.83
2022-08-23T01:52:51.222Z,1.80
2022-08-23T01:55:19.918Z,2.33
2022-08-23T01:57:53.235Z,1.73
2022-08-23T02:00:24.903Z,1.80
2022-08-23T02:02:53.216Z,1.77
2022-08-23T02:05:21.639Z,1.70
2022-08-23T02:07:49.929Z,1.70
2022-08-23T02:10:18.243Z,1.73
2022-08-23T02:12:46.718Z,1.63
2022-08-23T02:15:17.377Z,2.80
2022-08-23T02:17:46.608Z,1.40
2022-08-23T02:20:15.281Z,2.00
2022-08-23T02:22:43.551Z,1.70
2022-08-23T02:25:11.715Z,2.00
2022-08-23T02:27:43.893Z,1.87
2022-08-23T02:30:13.559Z,1.60
2022-08-23T02:32:43.619Z,2.00
2022-08-23T02:35:12.104Z,1.67
2022-08-23T02:37:40.400Z,1.90
2022-08-23T02:40:09.702Z,1.57
2022-08-23T02:42:37.946Z,2.00
2022-08-23T02:45:08.356Z,1.60
2022-08-23T02:47:37.354Z,2.00
2022-08-23T02:50:08.612Z,1.57
2022-08-23T02:52:36.798Z,1.57
2022-08-23T02:55:05.693Z,2.30
2022-08-23T02:57:34.061Z,1.57
2022-08-23T03:00:02.262Z,1.50
2022-08-23T03:02:31.515Z,1.97
2022-08-23T03:04:59.688Z,1.57
2022-08-23T03:07:30.190Z,1.23
2022-08-23T03:09:58.509Z,2.10
2022-08-23T03:12:27.133Z,1.80
2022-08-23T03:14:55.857Z,1.90
2022-08-23T03:17:23.986Z,1.60
2022-08-23T03:19:53.086Z,2.33
2022-08-23T03:22:23.049Z,1.60
2022-08-23T03:24:53.164Z,2.37
2022-08-23T03:27:21.283Z,2.40
2022-08-23T03:29:49.441Z,2.00
2022-08-23T03:32:17.722Z,1.40
2022-08-23T03:34:46.051Z,1.63
2022-08-23T03:37:14.595Z,2.00
2022-08-23T03:39:43.026Z,1.70
2022-08-23T03:42:13.048Z,1.80
2022-08-23T03:44:41.232Z,1.60
2022-08-23T03:47:09.457Z,1.63
2022-08-23T03:49:38.080Z,2.33
2022-08-23T03:52:06.996Z,1.87
2022-08-23T03:54:36.830Z,1.50
2022-08-23T03:57:09.269Z,2.10
2022-08-23T03:59:41.452Z,1.93
2022-08-23T04:02:11.036Z,1.70
2022-08-23T04:04:39.300Z,1.83
2022-08-23T04:07:07.444Z,2.60
2022-08-23T04:09:35.589Z,2.03
2022-08-23T04:12:04.392Z,2.77
2022-08-23T04:14:42.716Z,2.20
2022-08-23T04:17:10.819Z,2.37
2022-08-23T04:19:38.928Z,1.93
2022-08-23T04:22:12.920Z,1.60
2022-08-23T04:24:41.245Z,2.60
2022-08-23T04:27:09.469Z,2.10
2022-08-23T04:29:39.188Z,2.77
2022-08-23T04:32:11.709Z,2.30
2022-08-23T04:34:42.429Z,1.53
2022-08-23T04:37:14.088Z,2.10
2022-08-23T04:39:56.441Z,2.03
2022-08-23T04:42:24.885Z,1.93
2022-08-23T04:44:53.045Z,2.80
2022-08-23T04:47:22.727Z,2.00
2022-08-23T04:49:50.951Z,1.47
2022-08-23T04:52:19.693Z,2.43
2022-08-23T04:54:48.123Z,1.80
2022-08-23T04:57:16.843Z,2.33
2022-08-23T04:59:45.065Z,1.90
2022-08-23T05:02:13.228Z,2.10
2022-08-23T05:04:42.800Z,1.93
2022-08-23T05:07:10.915Z,1.97
2022-08-23T05:09:40.262Z,2.20
2022-08-23T05:12:09.055Z,2.60
2022-08-23T05:14:37.307Z,2.20
2022-08-23T05:17:05.688Z,2.37
2022-08-23T05:19:33.897Z,2.70
2022-08-23T05:22:04.062Z,2.50
2022-08-23T05:24:32.352Z,3.20
2022-08-23T05:27:00.484Z,1.90
2022-08-23T05:29:28.732Z,2.43
2022-08-23T05:31:57.270Z,2.43
2022-08-23T05:34:25.695Z,2.07
2022-08-23T05:36:56.097Z,2.33
2022-08-23T05:39:36.299Z,2.20
2022-08-23T05:42:05.286Z,2.73
2022-08-23T05:44:36.357Z,2.03
2022-08-23T05:47:11.163Z,2.00
2022-08-23T05:49:40.077Z,2.10
2022-08-23T05:52:10.421Z,2.20
2022-08-23T05:54:40.441Z,2.40
2022-08-23T05:57:08.735Z,2.37
2022-08-23T05:59:36.919Z,2.27
2022-08-23T06:02:06.114Z,1.87
2022-08-23T06:04:34.296Z,2.30
2022-08-23T06:07:02.509Z,2.57
2022-08-23T06:09:30.789Z,2.10
2022-08-23T06:12:00.237Z,2.40
2022-08-23T06:14:28.872Z,29.43
2022-08-23T06:16:57.044Z,4.50
2022-08-23T06:19:25.629Z,72.67
2022-08-23T06:21:53.911Z,75.97
2022-08-23T06:24:23.264Z,96.83
2022-08-23T06:26:52.261Z,11.83
2022-08-23T06:29:22.870Z,9.50
2022-08-23T06:31:52.877Z,4.70
2022-08-23T06:34:23.739Z,2.20
2022-08-23T06:36:55.185Z,4.87
2022-08-23T06:39:25.956Z,2.60
2022-08-23T06:41:58.017Z,3.23
2022-08-23T06:44:28.473Z,3.80
2022-08-23T06:46:57.442Z,2.17
2022-08-23T06:49:27.690Z,2.33
2022-08-23T06:51:59.974Z,2.23
2022-08-23T06:54:31.389Z,2.40
2022-08-23T06:57:00.656Z,2.20
2022-08-23T06:59:30.515Z,2.00
2022-08-23T07:02:01.240Z,2.27
2022-08-23T07:04:31.996Z,2.60
2022-08-23T07:07:01.618Z,2.30
2022-08-23T07:09:30.320Z,3.30
2022-08-23T07:11:58.903Z,2.20
2022-08-23T07:14:27.635Z,2.80
2022-08-23T07:17:01.223Z,3.77
2022-08-23T07:19:31.576Z,3.00
2022-08-23T07:22:00.540Z,2.70
2022-08-23T07:24:32.999Z,2.63
2022-08-23T07:27:06.259Z,2.70
2022-08-23T07:29:36.384Z,3.40
2022-08-23T07:32:06.646Z,3.10
2022-08-23T07:34:34.895Z,2.60
2022-08-23T07:37:04.437Z,3.17
2022-08-23T07:39:40.849Z,10.67
2022-08-23T07:42:22.822Z,6.90
2022-08-23T07:44:53.588Z,3.00
2022-08-23T07:47:23.780Z,2.50
2022-08-23T07:49:52.025Z,4.63
2022-08-23T07:52:20.184Z,2.83
2022-08-23T07:54:49.632Z,2.43
2022-08-23T07:57:18.257Z,4.10
2022-08-23T07:59:47.729Z,4.20
2022-08-23T08:02:15.881Z,2.67
2022-08-23T08:04:45.486Z,4.30
2022-08-23T08:07:21.426Z,2.30
2022-08-23T08:09:49.911Z,2.80
2022-08-23T08:12:18.262Z,2.43
2022-08-23T08:14:48.245Z,2.93
2022-08-23T08:17:17.183Z,3.10
2022-08-23T08:19:47.551Z,2.53
2022-08-23T08:22:15.691Z,4.10
2022-08-23T08:24:44.274Z,2.60
2022-08-23T08:27:12.710Z,2.40
2022-08-23T08:29:41.999Z,4.60
2022-08-23T08:32:13.888Z,3.13
2022-08-23T08:34:42.605Z,3.20
2022-08-23T08:37:12.199Z,3.23
2022-08-23T08:39:45.471Z,2.97
2022-08-23T08:42:41.594Z,3.40
2022-08-23T08:45:13.339Z,3.20
2022-08-23T08:47:48.201Z,3.80
2022-08-23T08:50:24.071Z,3.13
2022-08-23T08:52:58.929Z,2.80
2022-08-23T08:55:31.633Z,2.93
2022-08-23T08:58:00.605Z,3.67
2022-08-23T09:00:32.404Z,3.30
2022-08-23T09:03:02.819Z,3.30
2022-08-23T09:05:34.387Z,2.77
2022-08-23T09:08:23.512Z,2.80
2022-08-23T09:10:58.777Z,3.10
2022-08-23T09:14:04.304Z,3.27
2022-08-23T09:16:43.164Z,2.70
2022-08-23T09:19:11.379Z,3.63
2022-08-23T09:21:46.016Z,3.20
2022-08-23T09:24:16.276Z,3.13
2022-08-23T09:26:44.524Z,3.07
2022-08-23T09:29:24.366Z,2.80
2022-08-23T09:31:55.818Z,2.93
2022-08-23T09:34:39.153Z,2.20
2022-08-23T09:37:12.467Z,3.47
2022-08-23T09:39:44.982Z,3.13
2022-08-23T09:42:28.840Z,3.07
2022-08-23T09:44:57.826Z,2.67
2022-08-23T09:47:34.312Z,2.63
2022-08-23T09:50:12.065Z,2.90
2022-08-23T09:52:41.184Z,2.03
2022-08-23T09:55:27.910Z,2.50
2022-08-23T09:57:56.105Z,2.50
2022-08-23T10:00:28.180Z,2.20
2022-08-23T10:03:16.616Z,2.40
2022-08-23T10:05:44.849Z,2.00
2022-08-23T10:08:24.259Z,1.97
2022-08-23T10:10:57.800Z,2.20
2022-08-23T10:13:27.032Z,3.90
2022-08-23T10:16:06.669Z,2.03
2022-08-23T10:18:48.741Z,2.00
2022-08-23T10:21:24.287Z,2.40
2022-08-23T10:24:01.872Z,2.10
2022-08-23T10:26:35.154Z,2.03
2022-08-23T10:29:27.281Z,2.23
2022-08-23T10:32:01.971Z,2.90
2022-08-23T10:34:48.388Z,2.40
2022-08-23T10:37:36.440Z,2.23
2022-08-23T10:40:15.264Z,2.60
2022-08-23T10:42:56.349Z,2.00
2022-08-23T10:45:28.772Z,2.20
2022-08-23T10:48:14.216Z,2.80
2022-08-23T10:50:52.052Z,2.20
2022-08-23T10:53:31.683Z,2.20
2022-08-23T10:56:04.528Z,2.17
2022-08-23T10:58:40.006Z,2.10
2022-08-23T11:01:09.391Z,2.20
2022-08-23T11:03:44.361Z,2.00
2022-08-23T11:06:41.806Z,2.30
2022-08-23T11:09:29.588Z,1.80
2022-08-23T11:12:22.532Z,1.83
2022-08-23T11:15:11.609Z,2.10
2022-08-23T11:18:01.665Z,2.13
2022-08-23T11:20:56.530Z,2.27
2022-08-23T11:23:49.300Z,1.77
2022-08-23T11:27:06.380Z,2.87
2022-08-23T11:29:41.571Z,1.73
2022-08-23T11:32:47.524Z,2.10
2022-08-23T11:35:43.303Z,1.40
2022-08-23T11:38:12.152Z,1.93
2022-08-23T11:40:59.834Z,2.03
2022-08-23T11:43:34.639Z,2.20
2022-08-23T11:46:34.774Z,1.57
2022-08-23T11:49:39.134Z,1.87
2022-08-23T11:52:31.434Z,1.80
2022-08-23T11:55:09.235Z,1.97
2022-08-23T11:57:52.736Z,2.00
2022-08-23T12:00:29.045Z,1.60
2022-08-23T12:03:04.202Z,1.80
2022-08-23T12:06:09.065Z,2.10
2022-08-23T12:09:03.373Z,1.97
2022-08-23T12:12:10.255Z,1.70
2022-08-23T12:14:51.239Z,1.87
2022-08-23T12:17:56.336Z,1.60
2022-08-23T12:20:30.901Z,2.20
2022-08-23T12:23:08.563Z,2.00
2022-08-23T12:25:38.354Z,1.70
2022-08-23T12:28:31.446Z,2.70
2022-08-23T12:31:13.279Z,2.93
2022-08-23T12:33:56.097Z,2.20
2022-08-23T12:36:34.572Z,1.80
2022-08-23T12:39:07.831Z,1.70
2022-08-23T12:41:53.561Z,1.70
2022-08-23T12:44:24.249Z,1.80
2022-08-23T12:46:53.090Z,1.70
2022-08-23T12:49:30.435Z,2.83
2022-08-23T12:52:01.224Z,2.53
2022-08-23T12:54:39.169Z,2.30
2022-08-23T12:57:13.449Z,2.23
2022-08-23T12:59:46.525Z,2.13
2022-08-23T13:02:24.183Z,2.03
2022-08-23T13:04:53.705Z,1.80
2022-08-23T13:07:24.194Z,5.23
2022-08-23T13:09:53.683Z,2.33
2022-08-23T13:12:25.180Z,2.67
2022-08-23T13:14:55.270Z,2.07
2022-08-23T13:17:33.000Z,3.10
2022-08-23T13:20:21.854Z,2.20
2022-08-23T13:23:02.731Z,1.87
2022-08-23T13:25:33.931Z,2.60
2022-08-23T13:28:05.993Z,2.10
2022-08-23T13:30:36.445Z,2.97
2022-08-23T13:33:22.542Z,2.40
2022-08-23T13:35:52.659Z,2.37
2022-08-23T13:38:25.535Z,2.80
2022-08-23T13:40:59.045Z,2.00
2022-08-23T13:43:33.893Z,2.30
2022-08-23T13:46:13.360Z,1.90
2022-08-23T13:48:48.269Z,1.63
2022-08-23T13:51:25.059Z,3.13
2022-08-23T13:53:53.491Z,1.40
2022-08-23T13:56:22.473Z,1.73
2022-08-23T13:58:58.172Z,1.77
2022-08-23T14:01:27.170Z,1.93
2022-08-23T14:03:55.662Z,2.90
2022-08-23T14:06:24.029Z,2.60
2022-08-23T14:08:52.324Z,2.40
2022-08-23T14:11:20.596Z,2.07
2022-08-23T14:13:50.023Z,2.10
2022-08-23T14:16:33.614Z,2.10
2022-08-23T14:19:55.372Z,2.00
2022-08-23T14:21:53.289Z,2.80
2022-08-23T14:24:22.042Z,1.63
2022-08-23T14:26:52.414Z,3.07
2022-08-23T14:29:22.547Z,2.00
2022-08-23T14:31:53.242Z,2.07
2022-08-23T14:34:22.148Z,2.07
2022-08-23T14:39:39.786Z,2.13
2022-08-23T14:42:08.395Z,1.70
2022-08-23T14:44:36.906Z,1.67
2022-08-23T14:47:07.481Z,2.03
2022-08-23T14:49:36.072Z,2.10
2022-08-23T14:52:04.983Z,2.30
2022-08-23T14:54:34.512Z,1.90
2022-08-23T14:57:02.616Z,1.37
2022-08-23T14:59:30.863Z,1.53
2022-08-23T15:01:59.177Z,1.43
2022-08-23T15:04:34.298Z,1.40
2022-08-23T15:07:19.574Z,2.20
2022-08-23T15:09:48.778Z,1.50
2022-08-23T15:15:08.207Z,2.23
2022-08-23T15:17:38.968Z,2.20
2022-08-23T15:20:09.276Z,1.43
2022-08-23T15:22:44.347Z,3.03
2022-08-23T15:25:13.568Z,2.30
2022-08-23T15:27:41.895Z,1.80
2022-08-23T15:30:11.720Z,2.17
2022-08-23T15:32:39.917Z,1.87
2022-08-23T15:35:22.459Z,2.43
2022-08-23T15:37:50.718Z,2.10
2022-08-23T15:40:19.075Z,1.70
2022-08-23T15:42:47.308Z,2.23
2022-08-23T15:45:15.845Z,2.47
2022-08-23T15:47:49.059Z,2.27
2022-08-23T15:50:20.029Z,2.30
2022-08-23T15:52:50.695Z,2.27
2022-08-23T15:55:19.303Z,2.53
2022-08-23T15:57:50.868Z,1.60
2022-08-23T16:00:21.260Z,2.53
2022-08-23T16:03:20.026Z,2.00
2022-08-23T16:05:38.812Z,1.77
2022-08-23T16:08:09.747Z,1.77
2022-08-23T16:10:38.994Z,2.40
2022-08-23T16:13:07.120Z,2.10
2022-08-23T16:15:35.813Z,1.97
2022-08-23T16:18:03.949Z,2.27
2022-08-23T16:20:32.321Z,2.33
2022-08-23T16:23:00.941Z,2.10
2022-08-23T16:25:31.232Z,1.60
2022-08-23T16:28:00.118Z,1.80
2022-08-23T16:30:29.121Z,1.90
2022-08-23T16:32:57.474Z,1.70
2022-08-23T16:35:26.014Z,1.70
2022-08-23T16:37:54.877Z,2.10
2022-08-23T16:40:23.508Z,1.40
2022-08-23T16:42:53.450Z,1.90
2022-08-23T16:45:25.681Z,1.60
2022-08-23T16:47:55.177Z,3.20
2022-08-23T16:50:23.607Z,2.63
2022-08-23T16:52:51.889Z,1.27
2022-08-23T16:55:20.353Z,1.37
2022-08-23T16:57:48.436Z,2.50
2022-08-23T17:00:18.869Z,1.90
2022-08-23T17:02:47.160Z,1.50
2022-08-23T17:05:18.367Z,2.20
2022-08-23T17:07:47.703Z,1.20
2022-08-23T17:10:17.736Z,1.40
2022-08-23T17:12:48.988Z,1.43
2022-08-23T17:15:23.332Z,1.50
2022-08-23T17:17:51.802Z,2.30
2022-08-23T17:20:22.210Z,1.83
2022-08-23T17:22:50.888Z,1.53
2022-08-23T17:25:20.018Z,1.50
2022-08-23T17:27:49.650Z,1.50
2022-08-23T17:30:22.077Z,1.60
2022-08-23T17:32:51.324Z,1.57
2022-08-23T17:35:22.279Z,7.67
2022-08-23T17:37:50.464Z,1.43
2022-08-23T17:40:21.981Z,1.63
2022-08-23T17:42:50.328Z,1.00
2022-08-23T17:45:20.453Z,1.17
2022-08-23T17:48:00.388Z,1.00
2022-08-23T17:50:28.968Z,1.20
2022-08-23T17:52:57.214Z,1.50
2022-08-23T17:55:25.520Z,1.43
2022-08-23T17:58:03.780Z,1.80
2022-08-23T18:00:34.088Z,3.10
2022-08-23T18:03:02.458Z,1.30
2022-08-23T18:05:33.178Z,1.37
2022-08-23T18:08:01.403Z,1.30
2022-08-23T18:10:30.081Z,1.63
2022-08-23T18:12:58.910Z,1.30
2022-08-23T18:15:28.824Z,2.17
2022-08-23T18:17:59.896Z,1.10
2022-08-23T18:20:29.278Z,1.30
2022-08-23T18:22:58.133Z,1.30
2022-08-23T18:25:27.788Z,1.43
2022-08-23T18:28:07.021Z,1.20
2022-08-23T18:30:36.475Z,1.20
2022-08-23T18:33:07.486Z,0.97
2022-08-23T18:35:41.328Z,1.53
2022-08-23T18:38:10.131Z,1.40
2022-08-23T18:40:45.299Z,1.87
2022-08-23T18:43:15.017Z,1.50
2022-08-23T18:45:43.372Z,1.60
2022-08-23T18:48:13.256Z,1.80
2022-08-23T18:50:42.848Z,1.80
2022-08-23T18:53:12.519Z,1.50
2022-08-23T18:55:41.203Z,1.97
2022-08-23T18:58:09.595Z,2.20
2022-08-23T19:00:38.387Z,2.30
2022-08-23T19:03:07.921Z,2.30
2022-08-23T19:05:41.987Z,3.07
2022-08-23T19:08:11.106Z,2.73
2022-08-23T19:10:39.608Z,1.90
2022-08-23T19:13:08.919Z,2.47
2022-08-23T19:15:40.242Z,3.20
2022-08-23T19:18:08.532Z,1.57
2022-08-23T19:20:39.799Z,1.27
2022-08-23T19:23:08.099Z,1.47
2022-08-23T19:25:38.365Z,4.30
2022-08-23T19:28:07.420Z,2.40
2022-08-23T19:30:36.007Z,2.30
2022-08-23T19:33:04.779Z,3.40
2022-08-23T19:35:33.195Z,3.40
2022-08-23T19:38:02.921Z,2.90
2022-08-23T19:40:31.213Z,2.33
2022-08-23T19:43:00.468Z,3.60
2022-08-23T19:45:31.981Z,2.53
2022-08-23T19:48:00.601Z,1.60
2022-08-23T19:50:29.259Z,2.30
2022-08-23T19:52:57.562Z,3.57
2022-08-23T19:55:28.676Z,3.23
2022-08-23T19:57:58.220Z,1.53
2022-08-23T20:00:29.139Z,2.30
2022-08-23T20:02:57.629Z,2.70
2022-08-23T20:05:25.869Z,2.87
2022-08-23T20:07:54.083Z,2.40
2022-08-23T20:10:22.506Z,2.50
2022-08-23T20:12:52.034Z,2.20
2022-08-23T20:15:20.416Z,2.23
2022-08-23T20:17:48.519Z,1.50
2022-08-23T20:20:16.711Z,2.50
2022-08-23T20:23:02.452Z,2.70
2022-08-23T20:25:31.427Z,1.80
2022-08-23T20:28:05.000Z,2.00
2022-08-23T20:30:33.489Z,1.80
2022-08-23T20:33:01.695Z,1.90
2022-08-23T20:35:30.008Z,1.90
2022-08-23T20:37:58.161Z,2.23
2022-08-23T20:40:26.950Z,1.20
2022-08-23T20:42:55.100Z,1.63
2022-08-23T20:45:24.740Z,2.30
2022-08-23T20:47:52.930Z,2.57
2022-08-23T20:50:21.216Z,2.37
2022-08-23T20:52:49.300Z,2.17
2022-08-23T20:55:18.320Z,3.17
2022-08-23T20:57:46.421Z,2.33
2022-08-23T21:00:15.280Z,2.00
2022-08-23T21:02:45.705Z,2.03
2022-08-23T21:05:13.804Z,2.03
2022-08-23T21:07:41.979Z,1.77
2022-08-23T21:10:10.663Z,2.20
2022-08-23T21:12:38.778Z,3.97
2022-08-23T21:15:10.959Z,1.60
2022-08-23T21:17:39.321Z,1.77
2022-08-23T21:20:09.779Z,1.50
2022-08-23T21:22:37.876Z,1.60
2022-08-23T21:25:06.916Z,2.40
2022-08-23T21:27:35.113Z,2.20
2022-08-23T21:30:03.564Z,2.33
2022-08-23T21:32:31.661Z,1.93
2022-08-23T21:35:00.216Z,2.10
2022-08-23T21:37:30.138Z,1.80
2022-08-23T21:39:58.386Z,2.07
2022-08-23T21:42:26.513Z,1.80
2022-08-23T21:44:54.739Z,2.27
2022-08-23T21:47:23.037Z,1.70
2022-08-23T21:49:51.257Z,2.20
2022-08-23T21:52:19.386Z,2.10
2022-08-23T21:54:48.941Z,2.33
2022-08-23T21:57:17.334Z,2.33
2022-08-23T21:59:45.482Z,1.90
2022-08-23T22:02:13.653Z,1.47
2022-08-23T22:04:41.924Z,1.90
2022-08-23T22:07:10.065Z,1.90
2022-08-23T22:09:38.479Z,2.17
2022-08-23T22:12:09.593Z,1.70
2022-08-23T22:14:38.127Z,2.40
2022-08-23T22:17:06.455Z,1.90
2022-08-23T22:19:34.664Z,1.60
2022-08-23T22:22:02.932Z,1.80
2022-08-23T22:24:31.589Z,1.90
2022-08-23T22:26:59.762Z,2.00
2022-08-23T22:29:29.304Z,2.17
2022-08-23T22:31:57.532Z,1.70
2022-08-23T22:34:25.729Z,1.70
2022-08-23T22:36:55.759Z,1.77
2022-08-23T22:39:24.779Z,1.73
2022-08-23T22:41:54.100Z,1.73
2022-08-23T22:44:22.297Z,1.50
2022-08-23T22:46:51.828Z,1.93
2022-08-23T22:49:20.000Z,1.87
2022-08-23T22:51:49.202Z,1.80
2022-08-23T22:54:23.376Z,1.87
2022-08-23T22:56:52.802Z,1.70
2022-08-23T22:59:25.217Z,1.90
2022-08-23T23:01:58.749Z,1.93
2022-08-23T23:04:28.221Z,1.50
2022-08-23T23:06:57.285Z,1.67
2022-08-23T23:09:26.656Z,1.77
2022-08-23T23:11:55.541Z,2.00
2022-08-23T23:14:23.998Z,1.57
2022-08-23T23:16:53.296Z,1.87
2022-08-23T23:19:40.472Z,1.70
2022-08-23T23:22:09.604Z,1.23
2022-08-23T23:24:40.647Z,2.03
2022-08-23T23:27:09.423Z,1.67
2022-08-23T23:29:38.424Z,1.60
2022-08-23T23:32:06.925Z,1.60
2022-08-23T23:34:37.984Z,1.73
2022-08-23T23:37:06.584Z,1.50
2022-08-23T23:39:34.763Z,1.83
2022-08-23T23:42:02.915Z,1.60
2022-08-23T23:44:31.952Z,1.97
2022-08-23T23:47:01.423Z,1.67
2022-08-23T23:49:32.450Z,1.77
2022-08-23T23:52:03.642Z,2.03
2022-08-23T23:54:33.737Z,1.40
2022-08-23T23:57:01.848Z,1.73
2022-08-23T23:59:30.252Z,1.63
